Time;durP1;ratioP1;P1;durP2;ratioP2;P2;SDS_P1;SDS_P2;PMS_P1;PMS_P2;Temp;Humidity;BMP_temperature;BMP_pressure;BME280_temperature;BME280_humidity;BME280_pressure;Samples;Min_cycle;Max_cycle;Signal;HPM_P1;HPM_P2
2020/12/17 09:25:54;;;;;;;15.43;12.23;;;;;;;5.33;89.72;99528.94;5156796;27;21273;-81
2020/12/17 09:28:22;;;;;;;13.27;11.17;;;;;;;5.65;89.30;99546.38;5199398;22;39789;-80
2020/12/17 09:30:49;;;;;;;12.70;11.40;;;;;;;5.95;86.92;99542.75;5083811;28;42392;-80
2020/12/17 09:33:17;;;;;;;12.70;11.40;;;;;;;6.21;84.86;99546.28;5066210;28;43842;-82
2020/12/17 09:35:47;;;;;;;11.87;9.93;;;;;;;6.63;83.48;99552.72;5067682;28;42563;-82
2020/12/17 09:38:19;;;;;;;10.93;9.03;;;;;;;7.17;82.00;99565.63;5066282;28;40412;-81
2020/12/17 09:40:54;;;;;;;12.23;10.83;;;;;;;7.45;78.90;99567.22;5160884;22;42060;-81
2020/12/17 09:43:22;;;;;;;10.53;9.10;;;;;;;7.65;78.56;99558.56;5045889;28;45162;-81
2020/12/17 09:45:50;;;;;;;9.87;8.87;;;;;;;7.82;76.54;99574.56;5047117;28;42935;-81
2020/12/17 09:48:19;;;;;;;9.40;8.50;;;;;;;7.95;76.02;99573.16;5046896;28;41706;-82
2020/12/17 09:50:53;;;;;;;9.60;8.70;;;;;;;8.16;75.64;99561.72;5046282;28;42325;-81
2020/12/17 09:53:21;;;;;;;9.37;8.37;;;;;;;8.61;74.70;99569.53;5135367;22;42997;-81
2020/12/17 09:55:49;;;;;;;9.90;8.90;;;;;;;9.05;71.99;99558.75;5057188;28;42714;-81
2020/12/17 09:58:17;;;;;;;10.50;9.03;;;;;;;9.56;71.00;99570.50;5027728;28;41497;-81
2020/12/17 10:00:44;;;;;;;10.63;8.50;;;;;;;10.44;66.67;99587.41;5047024;28;43753;-82
2020/12/17 10:03:11;;;;;;;8.90;8.10;;;;;;;10.51;65.92;99550.88;5131574;22;44468;-82
2020/12/17 10:05:39;;;;;;;8.83;8.03;;;;;;;10.64;65.69;99551.94;5027049;28;43580;-82
2020/12/17 10:08:07;;;;;;;9.07;8.17;;;;;;;10.95;63.74;99554.72;5043266;28;40603;-82
2020/12/17 10:10:34;;;;;;;8.27;7.47;;;;;;;10.75;63.75;99536.38;5045055;28;43132;-82
2020/12/17 10:13:02;;;;;;;7.97;7.27;;;;;;;10.82;62.86;99513.91;5047035;28;44221;-81
2020/12/17 10:15:30;;;;;;;8.37;7.57;;;;;;;10.54;63.90;99532.16;5132372;22;42182;-82
2020/12/17 10:17:57;;;;;;;8.23;7.43;;;;;;;10.51;63.87;99548.25;5022802;28;40331;-80
2020/12/17 10:20:25;;;;;;;7.17;6.47;;;;;;;10.29;65.23;99556.38;5006199;28;42180;-81
2020/12/17 10:22:52;;;;;;;8.90;7.40;;;;;;;10.62;64.67;99528.22;5008213;28;44330;-81
2020/12/17 10:25:21;;;;;;;8.00;7.20;;;;;;;11.94;61.28;99574.97;5036514;28;41672;-82
2020/12/17 10:27:48;;;;;;;8.27;7.47;;;;;;;11.57;60.78;99592.91;5113286;22;40667;-82
2020/12/17 10:30:16;;;;;;;7.90;7.20;;;;;;;11.99;60.14;99594.16;5039521;28;41760;-82
2020/12/17 10:32:44;;;;;;;7.10;6.43;;;;;;;13.08;58.29;99603.63;5022738;28;42788;-82
2020/12/17 10:35:11;;;;;;;7.83;7.13;;;;;;;14.23;54.58;99626.53;5030610;28;43067;-82
2020/12/17 10:40:38;;;;;;;7.07;6.47;;;;;;;14.62;52.09;99607.94;5026846;28;42052;-82
2020/12/17 10:43:05;;;;;;;6.87;6.27;;;;;;;13.67;53.21;99612.41;4997154;28;43607;-82
2020/12/17 10:45:32;;;;;;;7.13;6.43;;;;;;;13.06;54.65;99604.66;5011943;28;42252;-81
2020/12/17 10:48:00;;;;;;;7.00;6.40;;;;;;;12.50;55.66;99591.13;5013325;28;41269;-82
2020/12/17 10:50:27;;;;;;;7.07;6.40;;;;;;;12.28;56.90;99582.72;5104865;22;41499;-81
2020/12/17 10:52:54;;;;;;;6.90;6.30;;;;;;;12.20;58.10;99584.97;5014172;28;43092;-81
2020/12/17 10:55:22;;;;;;;7.13;6.43;;;;;;;12.07;58.59;99570.69;5000870;28;43369;-82
2020/12/17 10:57:49;;;;;;;6.80;5.80;;;;;;;11.79;59.61;99576.69;5013698;28;39744;-81
2020/12/17 11:00:16;;;;;;;7.03;6.43;;;;;;;11.56;59.79;99563.81;5029409;28;42567;-81
2020/12/17 11:02:43;;;;;;;6.50;5.93;;;;;;;11.45;60.51;99556.44;5129994;22;43670;-81
2020/12/17 11:05:11;;;;;;;7.50;6.27;;;;;;;11.33;60.64;99567.72;5035329;28;43577;-81
2020/12/17 11:07:38;;;;;;;7.13;6.53;;;;;;;11.26;61.05;99566.31;5036186;28;40848;-81
2020/12/17 11:10:05;;;;;;;7.77;7.07;;;;;;;11.11;61.21;99562.72;5052316;28;41166;-82
2020/12/17 11:15:34;;;;;;;7.07;6.43;;;;;;;10.60;61.79;99534.50;4989075;28;42424;-81
2020/12/17 11:18:01;;;;;;;7.13;6.40;;;;;;;10.58;62.03;99552.28;4975961;28;42218;-82
2020/12/17 11:20:29;;;;;;;7.03;6.20;;;;;;;10.44;62.59;99547.69;4956190;28;43470;-82
2020/12/17 11:22:56;;;;;;;7.13;6.53;;;;;;;10.33;62.79;99537.63;4990376;28;42740;-82
2020/12/17 11:25:23;;;;;;;6.63;5.93;;;;;;;10.23;63.60;99519.66;5089868;22;42419;-81
2020/12/17 11:27:51;;;;;;;7.53;6.83;;;;;;;10.41;63.42;99535.44;5032314;28;41358;-81
2020/12/17 11:30:18;;;;;;;6.03;5.53;;;;;;;10.49;63.38;99526.28;5016003;28;42436;-82
2020/12/17 11:32:45;;;;;;;7.37;6.20;;;;;;;10.79;62.97;99536.13;5047504;28;42414;-82
2020/12/17 11:35:12;;;;;;;6.77;6.17;;;;;;;10.83;62.84;99536.81;5025844;28;43571;-81
2020/12/17 11:37:41;;;;;;;7.27;6.60;;;;;;;10.73;62.66;99540.88;5134878;22;40765;-81
2020/12/17 11:40:08;;;;;;;7.10;6.40;;;;;;;10.49;63.28;99528.91;5052268;28;41642;-81
2020/12/17 11:42:36;;;;;;;7.20;6.47;;;;;;;10.50;63.74;99541.22;5068353;28;42844;-81
2020/12/17 11:45:03;;;;;;;9.33;6.83;;;;;;;10.41;63.99;99539.88;5055050;28;42967;-81
2020/12/17 11:50:13;;;;;;;6.67;6.07;;;;;;;10.15;64.55;99517.34;5005910;28;41215;-81
2020/12/17 11:52:41;;;;;;;7.27;5.83;;;;;;;10.17;65.03;99531.34;4991512;28;42236;-82
2020/12/17 11:55:09;;;;;;;7.80;7.10;;;;;;;10.16;65.26;99540.22;5009244;28;42511;-82
2020/12/17 11:57:36;;;;;;;8.07;6.33;;;;;;;10.07;65.19;99533.63;5008583;28;39718;-83
2020/12/17 12:00:06;;;;;;;7.40;6.70;;;;;;;9.90;66.00;99512.41;5080989;22;42298;-81
2020/12/17 12:02:33;;;;;;;9.33;7.13;;;;;;;10.04;65.67;99538.19;5016335;28;44929;-81
2020/12/17 12:05:00;;;;;;;12.20;9.40;;;;;;;10.08;65.67;99531.81;5050492;28;42090;-81
2020/12/17 12:07:27;;;;;;;8.77;7.80;;;;;;;10.01;65.54;99514.56;5034587;28;41296;-81
2020/12/17 12:09:56;;;;;;;8.50;7.60;;;;;;;10.04;65.54;99514.38;5059327;28;41565;-80
2020/12/17 12:12:23;;;;;;;7.47;6.60;;;;;;;10.16;65.76;99534.06;5139554;22;41691;-81
2020/12/17 12:14:50;;;;;;;8.50;6.30;;;;;;;10.22;65.83;99528.53;5069883;28;41904;-81
2020/12/17 12:17:17;;;;;;;7.77;6.57;;;;;;;9.92;65.71;99470.88;5072085;28;39672;-80
2020/12/17 12:19:44;;;;;;;7.90;6.50;;;;;;;10.36;65.34;99526.03;5084143;28;42541;-80
2020/12/17 12:22:11;;;;;;;7.03;6.23;;;;;;;10.32;65.72;99509.44;5054820;28;44573;-80
2020/12/17 12:24:39;;;;;;;6.97;6.27;;;;;;;10.37;65.62;99515.38;5142268;22;44467;-81
2020/12/17 12:27:07;;;;;;;6.20;5.70;;;;;;;10.49;66.08;99531.56;5050663;28;39864;-80
2020/12/17 12:29:34;;;;;;;8.30;6.30;;;;;;;10.36;65.95;99508.38;5034551;28;42218;-80
2020/12/17 12:32:01;;;;;;;9.47;6.97;;;;;;;10.40;66.06;99522.28;5030019;28;44269;-81
2020/12/17 12:34:29;;;;;;;6.57;5.97;;;;;;;10.47;66.37;99529.00;5136670;22;43086;-82
2020/12/17 12:36:58;;;;;;;7.33;6.23;;;;;;;10.42;66.22;99510.69;5029934;28;38997;-81
2020/12/17 12:39:25;;;;;;;9.27;6.97;;;;;;;10.56;66.49;99532.94;5013714;28;42521;-81
2020/12/17 12:41:53;;;;;;;8.40;7.20;;;;;;;10.51;66.26;99509.34;4994586;28;43418;-81
2020/12/17 12:44:21;;;;;;;8.00;7.10;;;;;;;10.58;66.32;99523.13;5016435;28;41972;-81
2020/12/17 12:46:48;;;;;;;10.57;7.17;;;;;;;10.32;66.40;99496.22;5110418;22;40249;-81
2020/12/17 12:49:16;;;;;;;8.00;6.53;;;;;;;10.51;66.54;99527.88;5050689;28;43214;-81
2020/12/17 12:51:43;;;;;;;8.57;6.97;;;;;;;10.46;66.92;99526.41;5049827;28;43560;-81
2020/12/17 12:54:10;;;;;;;8.53;6.40;;;;;;;10.49;67.35;99531.56;5049272;28;42116;-81
2020/12/17 12:56:37;;;;;;;7.73;6.73;;;;;;;10.56;67.08;99532.94;5049715;28;40625;-80
2020/12/17 12:59:04;;;;;;;6.33;5.67;;;;;;;10.63;67.00;99535.19;5135940;22;41237;-81
2020/12/17 13:01:36;;;;;;;7.23;6.60;;;;;;;10.64;67.08;99520.16;5049077;28;42802;-80
2020/12/17 13:04:04;;;;;;;7.40;6.60;;;;;;;10.79;67.00;99540.56;5049587;28;42840;-81
2020/12/17 13:06:32;;;;;;;7.13;6.27;;;;;;;10.79;66.74;99528.16;5067412;28;39693;-81
2020/12/17 13:09:02;;;;;;;6.97;6.07;;;;;;;10.75;66.81;99520.47;5033829;28;43374;-82
2020/12/17 13:11:32;;;;;;;7.33;6.37;;;;;;;10.85;66.75;99534.94;5131885;22;44569;-82
2020/12/17 13:13:59;;;;;;;7.70;7.00;;;;;;;10.76;66.75;99519.50;5034041;28;42128;-82
2020/12/17 13:16:28;;;;;;;7.10;6.40;;;;;;;10.89;66.83;99547.06;5085386;28;41119;-82
2020/12/17 13:18:57;;;;;;;7.17;6.53;;;;;;;10.86;66.64;99547.25;5033821;28;42170;-82
2020/12/17 13:21:25;;;;;;;7.70;6.37;;;;;;;10.72;66.64;99520.63;5147852;22;42663;-82
2020/12/17 13:23:53;;;;;;;8.23;6.23;;;;;;;10.93;66.98;99532.75;5049667;28;41858;-82
2020/12/17 13:26:20;;;;;;;7.33;6.63;;;;;;;11.00;67.04;99530.63;5034535;28;41425;-82
2020/12/17 13:28:48;;;;;;;6.63;5.93;;;;;;;11.06;67.01;99532.94;5053937;28;43146;-82
2020/12/17 13:31:22;;;;;;;8.13;6.67;;;;;;;11.06;66.83;99533.81;5053600;28;43365;-82
2020/12/17 13:33:49;;;;;;;6.80;6.03;;;;;;;11.05;67.02;99536.53;5126126;22;42509;-83
2020/12/17 13:36:18;;;;;;;7.10;5.83;;;;;;;11.10;66.93;99537.16;5041101;28;41011;-83
2020/12/17 13:38:45;;;;;;;7.50;5.97;;;;;;;11.09;66.85;99531.00;5023880;28;43246;-83
2020/12/17 13:41:12;;;;;;;8.13;6.70;;;;;;;11.18;66.93;99547.31;5029968;28;43604;-82
2020/12/17 13:43:39;;;;;;;8.40;7.33;;;;;;;11.14;66.91;99547.50;5030061;28;42050;-82
2020/12/17 13:46:07;;;;;;;7.77;6.57;;;;;;;11.08;67.38;99533.72;5119902;22;41098;-81
2020/12/17 13:48:34;;;;;;;9.67;6.80;;;;;;;11.09;67.52;99523.03;5033930;28;43357;-82
2020/12/17 13:51:01;;;;;;;7.77;6.77;;;;;;;11.16;67.28;99524.41;5049880;28;42565;-82
2020/12/17 13:53:29;;;;;;;7.23;6.53;;;;;;;11.25;67.01;99538.13;5033813;28;42683;-82
2020/12/17 13:55:57;;;;;;;7.95;6.25;;;;;;;11.16;67.07;99507.66;5124038;22;39813;-82
2020/12/17 13:58:25;;;;;;;7.70;6.67;;;;;;;11.34;66.96;99542.91;5032097;28;43220;-82
2020/12/17 14:00:51;;;;;;;7.40;6.70;;;;;;;11.34;67.28;99558.81;5049311;28;42496;-82
2020/12/17 14:03:19;;;;;;;7.30;6.60;;;;;;;11.26;67.51;99563.66;5047012;28;43141;-82
2020/12/17 14:05:48;;;;;;;6.37;5.77;;;;;;;11.09;68.18;99548.69;5053287;28;39241;-82
2020/12/17 14:08:15;;;;;;;7.07;5.50;;;;;;;10.92;68.45;99530.16;5150157;22;42381;-82
2020/12/17 14:10:44;;;;;;;7.40;6.70;;;;;;;11.04;68.61;99562.19;5024742;28;44674;-83
2020/12/17 14:13:11;;;;;;;6.43;5.70;;;;;;;10.91;68.65;99547.00;5049398;28;42777;-83
2020/12/17 14:15:39;;;;;;;8.23;6.03;;;;;;;10.71;69.08;99533.03;5032704;28;39846;-82
2020/12/17 14:18:06;;;;;;;6.73;5.40;;;;;;;10.94;69.24;99574.22;5016423;28;43810;-81
2020/12/17 14:20:33;;;;;;;7.07;5.87;;;;;;;10.87;69.47;99564.88;5162624;22;43755;-82
2020/12/17 14:23:00;;;;;;;7.93;5.87;;;;;;;10.98;69.64;99578.41;5033092;28;42158;-82
2020/12/17 14:25:27;;;;;;;6.43;5.73;;;;;;;11.01;69.72;99582.69;5033231;28;39812;-82
2020/12/17 14:27:56;;;;;;;5.87;5.30;;;;;;;10.98;69.58;99567.81;5032974;28;42103;-82
2020/12/17 14:30:24;;;;;;;6.83;6.13;;;;;;;11.11;69.29;99589.22;5016324;28;45167;-83
2020/12/17 14:32:51;;;;;;;7.33;6.20;;;;;;;11.01;69.61;99567.63;5139924;22;42138;-82
2020/12/17 14:35:19;;;;;;;6.77;6.07;;;;;;;11.05;70.04;99594.84;5036603;28;40448;-81
2020/12/17 14:37:46;;;;;;;6.53;5.90;;;;;;;10.98;70.02;99589.03;5052842;28;42517;-82
2020/12/17 14:40:13;;;;;;;6.17;5.57;;;;;;;10.85;69.95;99574.69;5056443;28;42995;-83
2020/12/17 14:42:40;;;;;;;7.13;6.23;;;;;;;10.89;70.10;99588.63;5159812;22;41927;-82
2020/12/17 14:45:08;;;;;;;7.23;5.43;;;;;;;10.77;70.29;99580.38;5036609;28;39117;-82
2020/12/17 14:47:35;;;;;;;5.77;5.27;;;;;;;10.83;70.47;99610.16;5036804;28;43647;-81
2020/12/17 14:50:02;;;;;;;6.97;6.27;;;;;;;10.39;70.71;99547.03;5052851;28;43278;-81
2020/12/17 14:52:29;;;;;;;7.17;6.23;;;;;;;10.66;71.16;99608.34;5037271;28;44054;-81
2020/12/17 14:55:00;;;;;;;7.73;6.93;;;;;;;10.46;71.38;99592.63;5136746;22;39703;-83
2020/12/17 14:57:32;;;;;;;7.10;6.20;;;;;;;10.08;71.64;99553.00;5069690;28;41813;-84
2020/12/17 15:00:04;;;;;;;8.17;5.80;;;;;;;9.95;71.59;99549.22;5029071;28;41670;-84
2020/12/17 15:02:33;;;;;;;7.37;6.53;;;;;;;10.01;72.23;99572.78;5052410;28;41991;-83
2020/12/17 15:05:00;;;;;;;6.90;6.30;;;;;;;9.80;72.65;99555.25;5035673;28;38866;-83
2020/12/17 15:07:31;;;;;;;8.60;6.57;;;;;;;10.07;72.69;99615.66;5140767;22;41553;-84
2020/12/17 15:10:00;;;;;;;7.27;6.50;;;;;;;9.90;73.03;99598.84;5055423;28;42508;-84
2020/12/17 15:12:31;;;;;;;6.97;6.27;;;;;;;9.44;73.29;99548.16;5048863;28;41483;-83
2020/12/17 15:15:15;;;;;;;8.57;7.23;;;;;;;9.72;74.08;99619.97;5045193;28;38746;-84
2020/12/17 15:17:43;;;;;;;8.27;7.33;;;;;;;9.54;73.91;99607.59;5136494;22;41789;-84
2020/12/17 15:20:13;;;;;;;8.37;6.70;;;;;;;9.40;74.60;99595.94;5035599;28;43407;-82
2020/12/17 15:22:45;;;;;;;8.50;7.17;;;;;;;9.13;75.08;99571.66;5058626;28;42039;-82
2020/12/17 15:25:18;;;;;;;7.63;6.67;;;;;;;8.86;75.20;99556.09;5019420;28;39018;-82
2020/12/17 15:27:49;;;;;;;8.97;7.17;;;;;;;9.21;75.30;99635.56;5052589;28;41547;-81
2020/12/17 15:30:17;;;;;;;8.50;7.60;;;;;;;9.20;76.04;99641.78;5118489;22;44590;-83
2020/12/17 15:32:45;;;;;;;9.33;7.43;;;;;;;9.14;76.46;99647.34;5035269;28;42257;-82
2020/12/17 15:35:13;;;;;;;8.87;7.10;;;;;;;8.92;76.45;99626.28;5049022;28;40688;-83
2020/12/17 15:37:40;;;;;;;8.73;7.17;;;;;;;9.04;76.48;99656.59;5015998;28;41942;-82
2020/12/17 15:40:08;;;;;;;8.90;6.77;;;;;;;8.57;76.91;99604.03;5015801;28;44123;-83
2020/12/17 15:42:35;;;;;;;11.80;8.17;;;;;;;8.63;76.86;99630.19;5124874;22;42123;-83
2020/12/17 15:45:04;;;;;;;28.30;18.90;;;;;;;8.57;76.75;99625.16;5046820;28;38590;-82
2020/12/17 15:47:32;;;;;;;28.57;20.63;;;;;;;8.69;77.23;99658.97;5056154;28;42454;-82
2020/12/17 15:50:01;;;;;;;17.40;13.10;;;;;;;8.59;77.23;99649.72;5057455;28;42953;-83
2020/12/17 15:52:29;;;;;;;13.73;10.37;;;;;;;8.59;77.65;99655.00;5136695;22;42170;-83
2020/12/17 15:55:03;;;;;;;11.70;9.40;;;;;;;8.66;77.41;99667.00;5048993;28;39710;-83
2020/12/17 15:57:31;;;;;;;11.33;9.80;;;;;;;8.73;77.50;99673.75;5031766;28;40729;-83
2020/12/17 16:00:00;;;;;;;12.87;9.33;;;;;;;8.79;77.51;99689.34;5049451;28;42009;-83
2020/12/17 16:02:28;;;;;;;8.83;7.93;;;;;;;8.63;77.23;99651.31;5050503;28;42171;-83
2020/12/17 16:04:56;;;;;;;13.67;8.77;;;;;;;8.72;77.46;99674.69;5114847;22;39388;-81
2020/12/17 16:07:30;;;;;;;8.23;7.43;;;;;;;8.51;77.46;99662.38;5011200;28;41796;-82
2020/12/17 16:10:12;;;;;;;10.37;8.40;;;;;;;8.32;77.82;99645.56;5014772;28;42537;-82
2020/12/17 16:12:56;;;;;;;10.17;8.70;;;;;;;8.03;78.03;99613.28;5030392;28;42341;-83
2020/12/17 16:15:39;;;;;;;;;;;;;;;;;;;;;
2020/12/17 16:18:31;;;;;;;10.13;8.80;;;;;;;8.13;78.80;99659.47;5030340;28;41745;-82
2020/12/17 16:20:59;;;;;;;9.03;8.10;;;;;;;8.15;78.87;99680.53;4999147;28;42895;-82
2020/12/17 16:23:34;;;;;;;9.80;7.70;;;;;;;8.13;78.94;99688.50;4995505;28;42788;-82
2020/12/17 16:26:13;;;;;;;9.60;7.10;;;;;;;8.10;79.04;99695.66;4982681;28;39446;-82
2020/12/17 16:28:50;;;;;;;8.83;7.47;;;;;;;7.91;79.16;99674.44;5141917;22;41031;-83
2020/12/17 16:31:27;;;;;;;10.10;9.00;;;;;;;7.99;79.36;99701.34;5066458;28;41989;-82
2020/12/17 16:33:56;;;;;;;10.30;7.97;;;;;;;7.95;80.16;99697.09;5030731;28;42048;-82
2020/12/17 16:36:27;;;;;;;10.47;9.37;;;;;;;7.53;79.71;99646.88;5034952;28;38786;-81
2020/12/17 16:39:13;;;;;;;12.17;10.50;;;;;;;7.88;79.95;99708.81;5131574;22;42006;-81
